Time;durP1;ratioP1;P1;durP2;ratioP2;P2;SDS_P1;SDS_P2;PMS_P1;PMS_P2;Temp;Humidity;BMP_temperature;BMP_pressure;BME280_temperature;BME280_humidity;BME280_pressure;Samples;Min_cycle;Max_cycle;Signal;HPM_P1;HPM_P2
2023/10/10 00:02:19;;;;;;;;;30.00;27.00;;;;;17.29;75.62;100325.50;5094649;28;8841;-59
2023/10/10 00:04:47;;;;;;;;;33.00;29.00;;;;;17.30;75.69;100337.13;5094754;28;8849;-57
2023/10/10 00:07:15;;;;;;;;;39.00;33.50;;;;;17.28;75.45;100331.03;5094800;28;8817;-58
2023/10/10 00:09:44;;;;;;;;;37.00;31.00;;;;;17.27;75.48;100327.50;5095005;28;8829;-60
2023/10/10 00:12:13;;;;;;;;;33.00;30.75;;;;;17.27;75.91;100338.28;5094690;28;8882;-57
2023/10/10 00:14:42;;;;;;;;;30.75;29.00;;;;;17.26;75.93;100336.59;5094414;28;8817;-57
2023/10/10 00:17:10;;;;;;;;;33.50;31.00;;;;;17.23;75.98;100326.13;5094665;28;8845;-57
2023/10/10 00:19:43;;;;;;;;;35.00;32.50;;;;;17.23;75.74;100334.19;5094742;28;8833;-57
2023/10/10 00:22:11;;;;;;;;;37.25;30.25;;;;;17.19;76.00;100332.81;5094925;28;8910;-58
2023/10/10 00:24:39;;;;;;;;;23.25;23.25;;;;;17.17;76.20;100333.97;5094911;28;8821;-57
2023/10/10 00:27:12;;;;;;;;;38.75;35.50;;;;;17.17;75.95;100347.44;5094978;28;9511;-57
2023/10/10 00:29:42;;;;;;;;;34.50;31.50;;;;;17.15;76.15;100334.13;5094541;28;8887;-59
2023/10/10 00:32:16;;;;;;;;;43.75;33.75;;;;;17.16;76.14;100337.66;5095339;28;8829;-57
2023/10/10 00:34:47;;;;;;;;;37.00;34.00;;;;;17.14;75.73;100334.25;5095112;28;8845;-58
2023/10/10 00:37:21;;;;;;;;;33.25;30.25;;;;;17.11;76.30;100329.19;5094406;28;8936;-57
2023/10/10 00:39:53;;;;;;;;;30.25;23.00;;;;;17.07;76.52;100335.88;5094543;28;8826;-58
2023/10/10 00:42:21;;;;;;;;;31.25;29.50;;;;;17.00;76.54;100329.44;5094386;28;8977;-58
2023/10/10 00:44:49;;;;;;;;;34.75;32.75;;;;;16.95;76.84;100331.75;5099337;28;8808;-57
2023/10/10 00:47:17;;;;;;;;;33.00;29.50;;;;;16.91;76.69;100314.19;5113043;28;8855;-58
2023/10/10 00:49:47;;;;;;;;;33.25;30.00;;;;;16.86;76.30;100314.66;5098122;28;8824;-57
2023/10/10 00:52:16;;;;;;;;;33.75;26.25;;;;;16.81;77.03;100325.06;5098449;28;8847;-59
2023/10/10 00:54:45;;;;;;;;;40.75;37.50;;;;;16.78;76.98;100324.50;5097656;28;8856;-60
2023/10/10 00:57:15;;;;;;;;;35.00;33.00;;;;;16.75;76.76;100328.34;5097677;28;8810;-59
2023/10/10 00:59:44;;;;;;;;;39.25;36.00;;;;;16.73;77.24;100319.59;5098165;28;8836;-58
2023/10/10 01:02:12;;;;;;;;;42.75;35.50;;;;;16.73;76.69;100319.59;5098474;28;8826;-58
2023/10/10 01:14:16;;;;;;;;;36.50;33.00;;;;;16.73;76.79;100316.03;5077655;28;8781;-59
2023/10/10 01:16:47;;;;;;;;;38.50;33.50;;;;;16.73;77.16;100314.22;5077436;28;8855;-56
2023/10/10 01:19:18;;;;;;;;;31.00;28.75;;;;;16.73;76.83;100316.91;5077717;28;8824;-57
2023/10/10 01:21:50;;;;;;;;;35.00;32.75;;;;;16.74;77.25;100306.97;5077214;28;8835;-58
2023/10/10 01:24:21;;;;;;;;;36.50;33.50;;;;;16.73;76.90;100311.50;5077192;28;8937;-59
2023/10/10 01:26:51;;;;;;;;;38.50;34.75;;;;;16.72;77.12;100303.59;5077418;28;8850;-58
2023/10/10 01:29:25;;;;;;;;;31.50;28.75;;;;;16.71;77.09;100308.09;5077996;28;8856;-59
2023/10/10 01:31:53;;;;;;;;;37.00;33.50;;;;;16.72;77.33;100312.47;5076950;28;8839;-58
2023/10/10 01:34:39;;;;;;;;;36.25;34.50;;;;;16.70;77.34;100302.91;5077516;28;8933;-57
2023/10/10 01:37:14;;;;;;;;;35.00;29.75;;;;;16.70;77.34;100306.41;5077234;28;8828;-60
2023/10/10 01:39:41;;;;;;;;;33.00;30.00;;;;;16.70;77.24;100305.59;5077157;28;8820;-57
2023/10/10 01:42:11;;;;;;;;;32.00;29.00;;;;;16.69;77.30;100293.97;5081064;28;8832;-60
2023/10/10 01:44:39;;;;;;;;;41.00;37.50;;;;;16.69;76.96;100303.88;5098089;28;8860;-59
2023/10/10 01:47:18;;;;;;;;;29.00;27.50;;;;;16.68;77.28;100300.34;5096845;28;8832;-59
2023/10/10 01:49:46;;;;;;;;;34.25;27.50;;;;;16.66;77.18;100294.28;5095266;28;8818;-59
2023/10/10 01:52:17;;;;;;;;;35.00;31.00;;;;;16.65;77.30;100297.13;5057540;28;8860;-57
2023/10/10 01:54:52;;;;;;;;;39.25;33.75;;;;;16.63;77.59;100299.94;5056769;28;8952;-57
2023/10/10 01:57:24;;;;;;;;;35.00;32.75;;;;;16.61;77.27;100296.59;5069310;28;8943;-57
2023/10/10 01:59:52;;;;;;;;;36.75;34.75;;;;;16.59;77.59;100297.72;5097110;28;9466;-57
2023/10/10 02:02:24;;;;;;;;;37.00;31.25;;;;;16.56;77.59;100298.88;5083191;28;8836;-56
2023/10/10 02:04:56;;;;;;;;;33.25;26.50;;;;;16.56;77.61;100292.66;5077723;28;8883;-57
2023/10/10 02:07:31;;;;;;;;;29.00;27.25;;;;;16.57;77.32;100291.66;5076791;28;8812;-59
2023/10/10 02:10:12;;;;;;;;;34.75;33.00;;;;;16.59;77.19;100287.81;5076623;28;8844;-58
2023/10/10 02:12:39;;;;;;;;;32.75;26.50;;;;;16.61;77.06;100293.88;5076683;28;8889;-57
2023/10/10 02:15:11;;;;;;;;;30.50;27.75;;;;;16.62;77.54;100289.38;5093708;28;8830;-58
2023/10/10 02:17:42;;;;;;;;;35.75;32.00;;;;;16.64;77.07;100290.06;5096459;28;8818;-58
2023/10/10 02:20:32;;;;;;;;;30.75;25.50;;;;;16.66;77.31;100291.59;5096941;28;8844;-57
2023/10/10 02:23:09;;;;;;;;;33.50;28.50;;;;;16.67;77.21;100290.59;5096278;28;8883;-58
2023/10/10 02:25:45;;;;;;;;;32.00;28.75;;;;;16.68;77.55;100286.03;5096628;28;8915;-59
2023/10/10 02:28:21;;;;;;;;;32.00;30.00;;;;;16.67;77.38;100290.59;5096411;28;8978;-57
2023/10/10 02:30:49;;;;;;;;;31.50;29.00;;;;;16.68;77.03;100286.91;5096248;28;8854;-57
2023/10/10 02:33:24;;;;;;;;;31.25;28.75;;;;;16.67;77.32;100285.22;5096449;28;8838;-58
2023/10/10 02:35:55;;;;;;;;;34.75;32.50;;;;;16.69;77.24;100285.91;5096816;28;8822;-58
2023/10/10 02:38:25;;;;;;;;;27.50;20.50;;;;;16.72;77.08;100282.91;5096264;28;8814;-57
2023/10/10 02:40:55;;;;;;;;;33.75;26.75;;;;;16.74;76.88;100280.94;5096298;28;8826;-58
2023/10/10 02:43:45;;;;;;;;;27.00;24.25;;;;;16.76;77.17;100284.31;5096775;28;8818;-59
2023/10/10 02:46:17;;;;;;;;;35.50;29.50;;;;;16.78;77.25;100289.53;5095463;28;8947;-57
2023/10/10 02:48:45;;;;;;;;;30.75;27.50;;;;;16.80;77.33;100290.22;5096342;28;8833;-57
2023/10/10 02:51:18;;;;;;;;;32.00;28.00;;;;;16.82;76.82;100286.38;5095677;28;8814;-59
2023/10/10 02:53:46;;;;;;;;;29.50;25.75;;;;;16.84;77.11;100280.81;5096224;28;9503;-59
2023/10/10 02:56:16;;;;;;;;;31.25;27.25;;;;;16.88;77.17;100288.47;5102751;28;8804;-57
2023/10/10 02:58:45;;;;;;;;;34.25;29.25;;;;;16.90;77.09;100289.16;5096339;28;8902;-57
2023/10/10 03:01:49;;;;;;;;;31.75;29.50;;;;;16.93;76.61;100296.06;5095437;28;8810;-60
2023/10/10 03:04:09;;;;;;;;;31.80;29.00;;;;;16.95;76.92;100288.69;5110420;28;8836;-58
2023/10/10 03:06:38;;;;;;;;;30.25;27.50;;;;;16.96;76.50;100288.53;5101283;28;8802;-58
2023/10/10 03:09:14;;;;;;;;;30.50;27.50;;;;;16.97;76.89;100282.16;5109264;28;8827;-59
2023/10/10 03:11:53;;;;;;;;;23.25;18.75;;;;;16.99;76.50;100281.97;5103944;28;8818;-58
2023/10/10 03:14:28;;;;;;;;;25.80;24.40;;;;;16.99;76.84;100281.97;5097132;28;8802;-59
2023/10/10 03:17:05;;;;;;;;;38.50;36.00;;;;;16.99;77.04;100280.16;5103991;28;8837;-58
2023/10/10 03:19:41;;;;;;;;;34.25;29.50;;;;;16.98;76.64;100282.97;5095911;28;9483;-58
2023/10/10 03:22:27;;;;;;;;;38.00;33.25;;;;;16.96;77.08;100285.84;5075181;28;8836;-59
2023/10/10 03:25:20;;;;;;;;;34.50;28.75;;;;;16.95;77.04;100281.44;5075174;28;8832;-57
2023/10/10 03:27:54;;;;;;;;;28.40;27.00;;;;;16.93;76.94;100277.25;5074699;28;9494;-58
2023/10/10 03:30:33;;;;;;;;;32.50;29.50;;;;;16.92;77.10;100268.31;5075217;28;8820;-57
2023/10/10 03:33:08;;;;;;;;;23.75;21.75;;;;;16.94;77.06;100271.69;5084802;28;8822;-58
2023/10/10 03:38:43;;;;;;;;;32.00;29.00;;;;;16.95;77.05;100272.53;5095313;28;8841;-57
2023/10/10 05:23:29;;;;;;;;;26.60;22.80;;;;;16.95;76.69;100259.91;5094893;28;8952;-59
2023/10/10 05:23:31;;;;;;;;;26.75;24.75;;;;;16.17;79.66;100232.88;5110084;28;8858;-58
2023/10/10 05:26:02;;;;;;;;;31.00;29.00;;;;;16.12;78.97;100228.09;5107789;28;8812;-58
2023/10/10 05:28:32;;;;;;;;;19.00;14.20;;;;;16.08;79.73;100226.72;5098363;28;8826;-58
2023/10/10 05:31:02;;;;;;;;;27.50;26.50;;;;;16.04;79.07;100230.69;5096850;28;8844;-57
2023/10/10 05:33:36;;;;;;;;;28.00;24.75;;;;;16.00;79.49;100227.44;5096733;28;8845;-58
2023/10/10 05:36:06;;;;;;;;;27.50;24.00;;;;;15.98;79.17;100233.94;5095615;28;8837;-59
2023/10/10 05:38:35;;;;;;;;;28.75;26.75;;;;;15.93;79.48;100229.03;5095776;28;8848;-58
2023/10/10 05:41:06;;;;;;;;;36.00;27.25;;;;;15.91;79.76;100227.50;5095865;28;9519;-57
2023/10/10 05:43:34;;;;;;;;;31.75;29.00;;;;;15.88;79.47;100230.47;5095680;28;8818;-57
2023/10/10 05:46:03;;;;;;;;;32.00;26.25;;;;;15.86;79.73;100227.09;5096075;28;8845;-57
2023/10/10 05:48:32;;;;;;;;;28.50;20.00;;;;;15.81;79.46;100226.69;5095743;28;8829;-57
2023/10/10 05:50:59;;;;;;;;;28.75;27.00;;;;;15.77;79.95;100222.63;5096135;28;9511;-57
2023/10/10 05:53:27;;;;;;;;;25.75;24.00;;;;;15.73;80.11;100216.69;5096714;28;8830;-57
2023/10/10 05:55:58;;;;;;;;;31.00;29.25;;;;;15.70;79.60;100216.16;5096179;28;8856;-57
2023/10/10 05:58:26;;;;;;;;;28.75;24.50;;;;;15.67;80.18;100213.75;5096284;28;8822;-57
2023/10/10 06:00:54;;;;;;;;;24.75;23.00;;;;;15.66;79.69;100212.06;5096726;28;8829;-57
2023/10/10 06:03:22;;;;;;;;;30.00;25.50;;;;;15.64;79.93;100211.38;5095914;28;8864;-58
2023/10/10 06:05:50;;;;;;;;;25.75;23.00;;;;;15.64;80.07;100214.06;5096320;28;8964;-57
2023/10/10 06:08:18;;;;;;;;;30.50;27.50;;;;;15.65;79.88;100221.09;5096063;28;8832;-57
2023/10/10 06:10:48;;;;;;;;;25.75;19.50;;;;;15.67;79.39;100224.47;5095242;28;8919;-57
2023/10/10 06:13:16;;;;;;;;;31.75;29.00;;;;;15.67;79.68;100217.28;5094715;28;8838;-59
2023/10/10 06:15:44;;;;;;;;;32.75;31.00;;;;;15.69;79.50;100215.28;5095149;28;8826;-57
2023/10/10 06:18:14;;;;;;;;;23.75;22.00;;;;;15.70;79.34;100221.53;5095705;28;8857;-57
2023/10/10 06:20:42;;;;;;;;;32.75;29.50;;;;;15.71;79.72;100225.91;5095032;28;8832;-57
2023/10/10 06:23:33;;;;;;;;;32.25;26.25;;;;;15.75;79.34;100232.66;5094829;28;8840;-57
2023/10/10 06:26:01;;;;;;;;;24.75;24.50;;;;;15.75;79.24;100236.19;5106886;28;8812;-56
2023/10/10 06:28:35;;;;;;;;;25.50;20.50;;;;;15.77;79.55;100230.69;5115730;28;9493;-59
2023/10/10 06:31:09;;;;;;;;;31.00;29.50;;;;;15.81;79.35;100229.38;5115819;28;8812;-57
2023/10/10 06:33:40;;;;;;;;;26.25;23.25;;;;;15.85;78.85;100236.16;5110928;28;8832;-57
2023/10/10 06:36:32;;;;;;;;;29.75;28.25;;;;;15.89;78.81;100230.34;5115500;28;8819;-57
2023/10/10 06:41:46;;;;;;;;;31.50;30.00;;;;;16.00;78.85;100213.19;5094237;28;8850;-60
2023/10/10 06:44:17;;;;;;;;;30.50;28.00;;;;;16.04;79.09;100219.94;5094775;28;8977;-57
2023/10/10 06:46:48;;;;;;;;;34.75;29.00;;;;;16.07;78.54;100214.28;5082905;28;8822;-58
2023/10/10 06:49:18;;;;;;;;;28.00;25.75;;;;;16.10;78.47;100212.13;5095102;28;8826;-59
2023/10/10 06:51:46;;;;;;;;;35.25;31.50;;;;;16.14;78.71;100204.63;5094642;28;8833;-59
2023/10/10 06:54:19;;;;;;;;;32.00;29.50;;;;;16.18;78.25;100212.22;5094846;28;8830;-59
2023/10/10 06:57:04;;;;;;;;;38.25;33.50;;;;;16.20;78.46;100202.16;5094877;28;8833;-60
2023/10/10 06:59:32;;;;;;;;;31.75;25.50;;;;;16.22;78.15;100212.78;5094918;28;9558;-57
2023/10/10 07:02:12;;;;;;;;;38.75;29.00;;;;;16.24;78.33;100212.44;5094598;28;8844;-57
2023/10/10 07:04:40;;;;;;;;;26.00;24.75;;;;;16.27;77.59;100214.81;5074492;28;8844;-57
2023/10/10 07:07:09;;;;;;;;;36.75;30.00;;;;;16.29;77.84;100202.09;5073623;28;8844;-59
2023/10/10 07:09:37;;;;;;;;;31.00;28.75;;;;;16.32;77.63;100199.09;5074168;28;8839;-59
2023/10/10 07:12:10;;;;;;;;;39.25;34.50;;;;;16.38;78.31;100196.84;5074063;28;8972;-59
2023/10/10 07:14:40;;;;;;;;;31.00;30.00;;;;;16.41;77.66;100187.47;5072904;28;8926;-57
2023/10/10 07:17:11;;;;;;;;;39.00;35.00;;;;;16.46;77.99;100195.06;5072414;28;8886;-59
2023/10/10 07:20:54;;;;;;;;;41.00;35.50;;;;;16.51;77.81;100193.63;5072763;28;8851;-58
2023/10/10 07:22:28;;;;;;;;;45.00;43.75;;;;;16.60;76.97;100198.09;5075570;28;8878;-57
2023/10/10 07:25:06;;;;;;;;;44.50;39.25;;;;;16.66;77.11;100192.09;5074020;28;8856;-57
2023/10/10 07:27:35;;;;;;;;;38.50;35.50;;;;;16.75;76.80;100196.53;5074400;28;8828;-58
2023/10/10 07:30:16;;;;;;;;;38.25;34.00;;;;;16.83;77.25;100203.81;5074170;28;9490;-58
2023/10/10 07:32:44;;;;;;;;;45.00;38.25;;;;;16.93;77.26;100200.03;5090473;28;8826;-57
2023/10/10 07:35:15;;;;;;;;;43.50;39.50;;;;;17.04;76.85;100194.44;5093785;28;8858;-57
2023/10/10 07:37:45;;;;;;;;;36.00;27.00;;;;;17.17;76.46;100196.69;5093644;28;8841;-57
2023/10/10 07:40:21;;;;;;;;;33.50;29.75;;;;;17.32;75.91;100198.63;5094343;28;8826;-57
2023/10/10 07:42:51;;;;;;;;;42.75;38.75;;;;;17.45;75.71;100198.28;5094259;28;8834;-58
2023/10/10 07:45:27;;;;;;;;;42.25;36.75;;;;;17.55;75.50;100196.31;5075763;28;9809;-58
2023/10/10 07:50:48;;;;;;;;;40.75;36.25;;;;;17.77;74.98;100185.78;5028030;28;8838;-57
2023/10/10 07:53:17;;;;;;;;;42.50;37.75;;;;;17.84;75.33;100186.00;5072216;28;8838;-56
2023/10/10 07:56:00;;;;;;;;;43.00;37.25;;;;;17.91;74.89;100192.44;5093444;28;8957;-56
2023/10/10 07:58:42;;;;;;;;;42.00;38.50;;;;;17.97;75.06;100192.63;5093237;28;8837;-59
2023/10/10 08:01:20;;;;;;;;;44.00;40.50;;;;;18.06;74.90;100199.72;5093722;28;8830;-57
2023/10/10 08:03:48;;;;;;;;;27.75;26.50;;;;;18.16;74.64;100188.81;5093833;28;8888;-57
2023/10/10 08:06:21;;;;;;;;;44.00;42.00;;;;;18.25;74.64;100191.38;5076973;28;8897;-58
2023/10/10 08:09:08;;;;;;;;;46.00;40.00;;;;;18.36;74.52;100183.00;5073925;28;9478;-57
2023/10/10 08:11:39;;;;;;;;;51.50;45.25;;;;;18.49;74.30;100183.38;5073065;28;8832;-58
2023/10/10 08:14:08;;;;;;;;;42.75;36.75;;;;;18.61;73.87;100165.00;5072527;28;8824;-59
2023/10/10 08:16:36;;;;;;;;;44.80;37.80;;;;;18.74;73.77;100168.88;5072917;28;8836;-58
2023/10/10 08:19:08;;;;;;;;;53.00;42.25;;;;;18.89;72.96;100169.91;5073237;28;8975;-57
2023/10/10 08:21:38;;;;;;;;;47.60;42.00;;;;;19.05;72.81;100164.47;5073319;28;8832;-57
2023/10/10 08:24:06;;;;;;;;;43.80;37.80;;;;;19.19;73.10;100147.63;5073000;28;8854;-59
2023/10/10 08:26:40;;;;;;;;;43.00;41.25;;;;;19.35;72.58;100152.16;5073339;28;8838;-58
2023/10/10 08:29:08;;;;;;;;;42.60;37.60;;;;;19.59;72.14;100152.94;5073191;28;8840;-59
2023/10/10 08:31:37;;;;;;;;;41.20;38.00;;;;;19.77;72.15;100150.81;5073213;28;8869;-57
2023/10/10 08:34:05;;;;;;;;;46.40;41.40;;;;;19.89;72.08;100160.22;5073559;28;9002;-58
2023/10/10 08:36:32;;;;;;;;;39.20;36.40;;;;;19.96;71.81;100158.50;5074049;28;9498;-59
2023/10/10 08:39:11;;;;;;;;;31.20;26.20;;;;;20.07;71.66;100157.28;5073331;28;9529;-59
2023/10/10 08:41:41;;;;;;;;;34.60;33.60;;;;;20.17;71.23;100166.88;5080070;28;8806;-58
2023/10/10 08:44:09;;;;;;;;;43.40;39.60;;;;;20.29;71.19;100164.63;5093211;28;8919;-58
2023/10/10 08:46:40;;;;;;;;;33.20;29.60;;;;;20.40;70.88;100173.16;5093171;28;8876;-58
2023/10/10 08:49:08;;;;;;;;;33.60;32.20;;;;;20.53;71.06;100159.88;5092926;28;8818;-58
2023/10/10 08:51:39;;;;;;;;;42.60;33.80;;;;;20.66;70.27;100165.56;5100396;28;8865;-58
2023/10/10 08:54:09;;;;;;;;;28.00;24.40;;;;;20.72;70.11;100164.84;5107196;28;8813;-57
2023/10/10 08:56:39;;;;;;;;;21.00;18.20;;;;;20.78;69.92;100164.94;5096698;28;8826;-58
2023/10/10 08:59:07;;;;;;;;;25.80;24.20;;;;;20.86;69.77;100158.59;5091789;28;8840;-59
2023/10/10 09:01:35;;;;;;;;;24.40;22.60;;;;;20.89;70.08;100161.00;5092914;28;8851;-60
2023/10/10 09:04:04;;;;;;;;;29.60;26.40;;;;;20.90;69.24;100168.91;5091574;28;8866;-57
2023/10/10 09:06:33;;;;;;;;;30.20;28.40;;;;;20.93;70.02;100156.88;5092641;28;8830;-59
2023/10/10 09:09:32;;;;;;;;;28.20;24.40;;;;;20.96;69.63;100161.94;5092731;28;8826;-59
2023/10/10 09:11:49;;;;;;;;;25.40;21.60;;;;;20.98;69.85;100159.91;5096355;28;8834;-57
2023/10/10 09:14:17;;;;;;;;;25.80;23.20;;;;;20.99;69.55;100157.00;5096554;28;8893;-59
2023/10/10 09:16:45;;;;;;;;;22.40;21.00;;;;;21.02;69.51;100153.09;5096713;28;8836;-60
2023/10/10 09:19:14;;;;;;;;;19.20;19.00;;;;;21.03;69.88;100158.31;5096717;28;8863;-58
2023/10/10 09:21:44;;;;;;;;;21.00;20.20;;;;;21.07;69.63;100164.22;5095033;28;8837;-59
2023/10/10 09:24:26;;;;;;;;;21.60;20.40;;;;;21.12;69.14;100162.63;5096413;28;8844;-59
2023/10/10 09:26:56;;;;;;;;;27.60;24.40;;;;;21.20;69.09;100148.19;5096367;28;8864;-58
2023/10/10 09:29:26;;;;;;;;;17.20;16.20;;;;;21.27;69.34;100154.53;5096402;28;8857;-57
2023/10/10 09:31:59;;;;;;;;;14.40;12.80;;;;;21.37;69.17;100157.81;5095600;28;8829;-58
2023/10/10 09:34:35;;;;;;;;;21.40;20.20;;;;;21.46;68.92;100170.25;5095313;28;8880;-58
2023/10/10 09:37:07;;;;;;;;;15.20;15.20;;;;;21.57;68.78;100169.81;5095761;28;8833;-59
2023/10/10 09:39:38;;;;;;;;;18.00;17.40;;;;;21.66;68.25;100169.56;5095744;28;8853;-58
2023/10/10 09:42:22;;;;;;;;;17.40;17.00;;;;;21.73;68.17;100161.50;5095616;28;9498;-58
2023/10/10 09:47:43;;;;;;;;;14.60;14.00;;;;;21.85;67.62;100160.84;5095210;28;8838;-59
2023/10/10 09:56:30;;;;;;;;;15.40;14.60;;;;;22.78;64.91;100164.47;5091642;28;8778;-60
2023/10/10 10:02:04;;;;;;;;;13.80;13.00;;;;;23.34;64.12;100164.34;5061176;28;8804;-58
2023/10/10 10:04:38;;;;;;;;;13.20;12.60;;;;;23.49;63.63;100169.66;5087404;28;8842;-58
2023/10/10 10:07:12;;;;;;;;;13.80;12.40;;;;;23.66;63.89;100171.06;5094167;28;9559;-57
2023/10/10 10:09:45;;;;;;;;;11.60;10.00;;;;;23.84;63.28;100168.63;5074871;28;8862;-58
2023/10/10 10:12:13;;;;;;;;;14.40;14.40;;;;;23.90;63.49;100156.97;5074570;28;8862;-58
2023/10/10 10:14:46;;;;;;;;;16.20;15.00;;;;;23.85;63.67;100164.88;5074396;28;8890;-60
2023/10/10 10:17:30;;;;;;;;;14.60;12.00;;;;;23.79;64.32;100162.94;5074813;28;8840;-58
2023/10/10 10:20:03;;;;;;;;;15.00;14.20;;;;;23.79;64.27;100168.38;5080927;28;8830;-60
2023/10/10 10:22:31;;;;;;;;;10.40;9.60;;;;;23.82;63.90;100163.38;5093797;28;8830;-60
2023/10/10 10:25:21;;;;;;;;;14.00;13.20;;;;;23.93;63.52;100164.72;5094568;28;8978;-58
2023/10/10 10:27:51;;;;;;;;;13.00;11.20;;;;;24.00;63.65;100160.16;5094252;28;8841;-58
2023/10/10 10:33:12;;;;;;;;;13.60;12.40;;;;;24.43;61.78;100151.50;5127759;27;14078;-58
2023/10/10 10:35:44;;;;;;;;;11.20;11.00;;;;;24.54;62.21;100140.03;5110397;28;8832;-59
2023/10/10 10:38:12;;;;;;;;;11.00;11.00;;;;;24.64;61.43;100145.94;5110797;28;8824;-58
2023/10/10 10:40:42;;;;;;;;;13.40;12.20;;;;;24.64;61.76;100156.03;5109948;28;8917;-58
2023/10/10 10:43:14;;;;;;;;;9.40;9.40;;;;;24.63;61.71;100149.72;5111025;28;8932;-58
2023/10/10 10:45:44;;;;;;;;;9.60;9.20;;;;;24.62;61.78;100147.19;5110315;28;8858;-58
2023/10/10 10:48:29;;;;;;;;;11.20;9.80;;;;;24.64;61.55;100145.13;5110778;28;8831;-57
2023/10/10 10:51:03;;;;;;;;;8.20;8.20;;;;;24.69;61.71;100143.44;5110239;28;8853;-59
2023/10/10 10:53:32;;;;;;;;;9.60;7.80;;;;;24.64;62.13;100145.13;5110899;28;8820;-58
2023/10/10 11:01:51;;;;;;;;;8.20;6.40;;;;;24.32;61.89;100137.66;5047589;28;8879;-58
2023/10/10 11:04:40;;;;;;;;;10.20;8.80;;;;;24.33;61.82;100137.47;5113922;27;8946;-57
2023/10/10 11:07:08;;;;;;;;;9.60;9.00;;;;;24.24;61.86;100118.78;5119626;27;8850;-57
2023/10/10 11:09:37;;;;;;;;;7.80;7.40;;;;;24.17;62.45;100121.50;5113646;28;8836;-59
2023/10/10 11:12:06;;;;;;;;;5.80;4.40;;;;;24.10;62.60;100125.22;5109718;28;8847;-58
2023/10/10 11:14:44;;;;;;;;;6.00;6.00;;;;;24.07;62.25;100115.63;5109833;28;8924;-58
2023/10/10 11:17:17;;;;;;;;;9.80;8.60;;;;;24.07;62.36;100121.06;5110064;28;9599;-58
2023/10/10 11:19:46;;;;;;;;;5.80;5.60;;;;;24.15;61.56;100122.75;5109420;28;8840;-60
2023/10/10 11:22:38;;;;;;;;;8.20;7.80;;;;;24.37;60.75;100110.66;5109619;28;8816;-58
2023/10/10 11:25:05;;;;;;;;;8.80;8.00;;;;;24.74;59.46;100099.22;5109676;28;8815;-58
2023/10/10 11:27:43;;;;;;;;;8.40;7.80;;;;;24.99;59.06;100095.66;5109168;28;8831;-58
2023/10/10 11:30:11;;;;;;;;;8.00;7.60;;;;;25.19;59.15;100099.19;5109237;28;8828;-58
2023/10/10 11:32:46;;;;;;;;;6.80;6.00;;;;;25.38;57.97;100094.78;5110048;28;8870;-57
2023/10/10 11:35:22;;;;;;;;;7.00;6.60;;;;;25.66;57.53;100093.47;5109084;28;8968;-58
2023/10/10 11:37:59;;;;;;;;;7.40;7.20;;;;;25.76;57.79;100099.31;5108425;28;9554;-57
2023/10/10 11:40:32;;;;;;;;;8.20;7.00;;;;;25.95;57.78;100093.81;5108276;28;8887;-58
2023/10/10 11:43:03;;;;;;;;;7.00;7.00;;;;;26.44;56.37;100088.50;5104092;28;8860;-58
2023/10/10 11:45:31;;;;;;;;;6.20;5.60;;;;;26.87;55.50;100089.44;5094642;28;8966;-60
2023/10/10 11:48:05;;;;;;;;;8.20;6.00;;;;;27.40;54.70;100085.19;5095018;28;8909;-57
2023/10/10 11:50:33;;;;;;;;;6.60;6.40;;;;;28.07;53.38;100093.25;5095478;28;8841;-58
2023/10/10 11:53:02;;;;;;;;;6.00;6.00;;;;;28.83;51.65;100086.03;5095557;28;9042;-58
2023/10/10 11:55:31;;;;;;;;;7.00;6.20;;;;;29.27;50.96;100085.50;5095167;28;8826;-58
2023/10/10 11:58:06;;;;;;;;;8.40;6.60;;;;;29.79;50.13;100086.44;5094024;28;8874;-58
2023/10/10 12:00:42;;;;;;;;;7.60;7.60;;;;;30.36;49.04;100077.19;5093724;28;8910;-58
2023/10/10 12:03:11;;;;;;;;;5.00;4.00;;;;;30.93;48.62;100065.84;5089470;28;8835;-59
2023/10/10 12:05:47;;;;;;;;;4.20;4.00;;;;;31.42;47.40;100063.06;5074983;28;8828;-58
2023/10/10 12:08:22;;;;;;;;;4.00;4.00;;;;;31.76;47.26;100069.34;5075370;28;8840;-58
2023/10/10 12:11:04;;;;;;;;;7.40;6.80;;;;;31.88;46.56;100054.34;5055759;28;8815;-57
2023/10/10 12:13:36;;;;;;;;;8.40;7.80;;;;;31.81;46.86;100053.75;5054497;28;8924;-58
2023/10/10 12:16:07;;;;;;;;;10.60;8.20;;;;;31.39;48.25;100055.34;5054508;28;8822;-58
2023/10/10 12:18:35;;;;;;;;;2.00;2.00;;;;;30.87;49.05;100055.84;5055096;28;8835;-60
2023/10/10 12:21:03;;;;;;;;;10.20;8.00;;;;;30.79;48.72;100056.25;5057979;28;8943;-58
2023/10/10 12:29:47;;;;;;;;;7.00;5.60;;;;;30.96;48.00;100035.09;5095606;28;8770;-58
2023/10/10 12:47:58;;;;;;;;;5.00;4.00;;;;;29.11;50.71;100036.84;5076238;28;8780;-58
2023/10/10 12:50:29;;;;;;;;;7.00;7.00;;;;;29.01;50.75;100033.00;5074433;28;8817;-58
2023/10/10 12:53:07;;;;;;;;;9.20;7.80;;;;;28.96;50.06;100032.91;5074562;28;9970;-58
2023/10/10 12:55:36;;;;;;;;;5.80;5.40;;;;;28.89;49.81;100030.22;5074482;28;9478;-60
2023/10/10 12:58:14;;;;;;;;;3.80;3.80;;;;;28.77;50.27;100034.91;5075274;28;9543;-59
2023/10/10 13:00:49;;;;;;;;;5.80;5.20;;;;;28.66;50.55;100030.22;5074648;28;8847;-60
2023/10/10 13:03:17;;;;;;;;;4.40;4.40;;;;;28.76;50.11;100029.63;5074237;28;8866;-59
2023/10/10 13:05:50;;;;;;;;;11.60;10.40;;;;;28.99;49.50;100024.19;5074052;28;8836;-59
2023/10/10 13:08:24;;;;;;;;;4.40;4.40;;;;;29.22;49.54;100025.03;5074743;28;8909;-59
2023/10/10 13:10:55;;;;;;;;;5.20;4.40;;;;;29.12;49.19;100027.53;5074020;28;10001;-58
2023/10/10 13:13:31;;;;;;;;;6.20;5.20;;;;;29.00;49.04;100018.47;5073879;28;8844;-60
2023/10/10 13:16:22;;;;;;;;;1.80;1.40;;;;;28.88;50.09;100014.84;5074237;28;8848;-60
2023/10/10 13:18:49;;;;;;;;;4.20;4.20;;;;;28.82;50.00;100020.47;5076424;28;8827;-58
2023/10/10 13:21:19;;;;;;;;;8.40;5.40;;;;;28.91;50.26;100019.03;5094116;28;8822;-60
2023/10/10 13:23:47;;;;;;;;;5.00;5.00;;;;;29.03;49.86;100012.50;5093750;28;8849;-58
2023/10/10 13:26:16;;;;;;;;;6.20;5.00;;;;;29.28;49.32;100015.81;5078907;28;8840;-60
2023/10/10 13:28:46;;;;;;;;;4.00;4.00;;;;;29.52;48.22;100020.25;5077890;28;9821;-59
2023/10/10 13:31:14;;;;;;;;;4.80;4.80;;;;;29.73;48.17;100019.56;5093798;28;8903;-59
2023/10/10 13:33:43;;;;;;;;;7.00;5.00;;;;;29.78;47.84;100019.69;5094087;28;8842;-59
2023/10/10 13:36:11;;;;;;;;;4.40;4.20;;;;;29.92;47.42;100017.47;5091942;28;8962;-59
2023/10/10 13:38:41;;;;;;;;;5.80;5.00;;;;;30.24;47.13;100015.94;5084905;28;8816;-58
2023/10/10 13:41:09;;;;;;;;;4.60;4.00;;;;;30.59;46.32;100009.16;5079943;28;8824;-60
2023/10/10 13:43:41;;;;;;;;;6.00;4.00;;;;;30.95;46.11;100005.91;5112494;28;8842;-58
2023/10/10 13:46:09;;;;;;;;;5.00;4.80;;;;;31.31;45.03;99997.94;5112253;28;8878;-59
2023/10/10 13:48:37;;;;;;;;;5.00;5.00;;;;;31.38;45.86;100009.59;5086285;28;8840;-60
2023/10/10 13:51:07;;;;;;;;;4.20;3.00;;;;;31.55;44.90;100006.78;5092163;28;8822;-58
2023/10/10 13:53:35;;;;;;;;;4.20;4.20;;;;;31.85;44.80;100010.78;5092312;28;8834;-59
2023/10/10 13:56:03;;;;;;;;;6.60;5.00;;;;;32.10;44.21;99996.47;5092920;28;9496;-58
2023/10/10 13:58:32;;;;;;;;;5.20;5.20;;;;;31.86;45.17;99998.66;5092789;28;8846;-58
2023/10/10 14:01:14;;;;;;;;;6.40;5.20;;;;;31.51;45.75;100009.25;5092933;28;8834;-59
2023/10/10 14:03:45;;;;;;;;;6.00;5.20;;;;;30.93;46.37;100006.16;5092812;28;8838;-58
2023/10/10 14:06:13;;;;;;;;;5.80;5.60;;;;;30.41;47.86;100008.53;5093013;28;8822;-59
2023/10/10 14:08:44;;;;;;;;;4.40;4.20;;;;;29.83;48.68;100003.31;5093257;28;8848;-59
2023/10/10 14:11:12;;;;;;;;;8.20;5.80;;;;;29.34;48.89;100003.88;5093077;28;8829;-59
2023/10/10 14:13:40;;;;;;;;;6.80;5.80;;;;;28.96;50.02;100000.81;5092689;28;9670;-58
2023/10/10 14:16:07;;;;;;;;;4.60;4.60;;;;;28.74;50.22;99998.88;5092863;28;8837;-60
2023/10/10 14:18:42;;;;;;;;;3.00;3.00;;;;;28.73;49.90;100005.41;5093014;28;9019;-58
2023/10/10 14:21:11;;;;;;;;;3.00;3.00;;;;;28.77;49.26;100001.97;5093153;28;8822;-60
2023/10/10 14:23:39;;;;;;;;;5.00;5.00;;;;;28.76;49.41;99999.47;5093207;28;8830;-60
2023/10/10 14:26:13;;;;;;;;;6.60;5.00;;;;;28.83;49.20;99995.53;5093418;28;8811;-58